createdAt,value
2022-09-05T00:00:25.001Z,54.80
2022-09-05T00:03:17.232Z,54.80
2022-09-05T00:06:07.725Z,55.20
2022-09-05T00:09:02.010Z,55.20
2022-09-05T00:12:00.759Z,55.40
2022-09-05T00:15:23.395Z,55.90
2022-09-05T00:23:06.158Z,56.40
2022-09-05T00:24:28.184Z,57.10
2022-09-05T00:25:49.747Z,56.70
2022-09-05T00:28:56.302Z,57.00
2022-09-05T00:32:05.724Z,57.20
2022-09-05T00:35:07.632Z,57.30
2022-09-05T00:37:46.687Z,57.70
2022-09-05T00:40:29.541Z,58.20
2022-09-05T00:43:27.589Z,58.20
2022-09-05T00:46:14.657Z,58.30
2022-09-05T00:48:54.757Z,58.60
2022-09-05T00:51:38.365Z,59.10
2022-09-05T00:54:41.351Z,59.30
2022-09-05T00:57:58.964Z,59.50
2022-09-05T01:00:33.791Z,60.60
2022-09-05T01:03:34.771Z,60.70
2022-09-05T01:06:48.050Z,60.80
2022-09-05T01:10:04.121Z,60.90
2022-09-05T01:12:50.358Z,61.10
2022-09-05T01:15:37.243Z,61.30
2022-09-05T01:18:32.737Z,61.80
2022-09-05T01:21:37.741Z,62.20
2022-09-05T01:25:05.796Z,62.50
2022-09-05T01:29:15.493Z,63.00
2022-09-05T01:31:25.884Z,64.10
2022-09-05T01:34:34.610Z,64.60
2022-09-05T01:37:33.313Z,65.20
2022-09-05T01:41:17.728Z,65.60
2022-09-05T01:44:20.184Z,66.10
2022-09-05T01:47:30.988Z,66.60
2022-09-05T01:50:32.390Z,67.10
2022-09-05T01:53:36.262Z,67.70
2022-09-05T01:56:38.645Z,68.10
2022-09-05T01:59:38.999Z,68.40
2022-09-05T02:03:01.462Z,68.90
2022-09-05T02:06:06.346Z,69.10
2022-09-05T02:09:23.194Z,69.40
2022-09-05T02:12:04.204Z,69.40
2022-09-05T02:14:45.725Z,69.50
2022-09-05T02:17:51.055Z,69.70
2022-09-05T02:20:34.213Z,70.20
2022-09-05T02:23:40.784Z,70.30
2022-09-05T02:26:21.426Z,70.50
2022-09-05T02:29:05.366Z,70.50
2022-09-05T02:31:53.091Z,71.20
2022-09-05T02:34:43.833Z,71.20
2022-09-05T02:40:12.567Z,71.20
2022-09-05T02:45:15.328Z,71.50
2022-09-05T02:45:20.264Z,71.60
2022-09-05T02:48:15.005Z,71.90
2022-09-05T02:55:02.035Z,72.10
2022-09-05T02:57:33.109Z,72.30
2022-09-05T02:58:05.899Z,72.80
2022-09-05T03:00:36.788Z,72.80
2022-09-05T03:03:39.259Z,73.40
2022-09-05T03:06:50.628Z,73.60
2022-09-05T03:10:05.693Z,73.50
2022-09-05T03:13:02.078Z,73.60
2022-09-05T03:16:05.164Z,73.50
2022-09-05T03:19:02.530Z,73.40
2022-09-05T03:22:22.783Z,73.20
2022-09-05T03:25:35.037Z,73.20
2022-09-05T03:28:37.509Z,73.20
2022-09-05T03:31:45.236Z,73.90
2022-09-05T03:34:39.808Z,74.30
2022-09-05T03:38:12.145Z,74.80
2022-09-05T03:41:05.827Z,74.40
2022-09-05T03:44:13.733Z,74.20
2022-09-05T03:46:51.609Z,74.10
2022-09-05T03:54:47.335Z,73.90
2022-09-05T03:57:08.544Z,73.90
2022-09-05T03:57:28.080Z,73.80
2022-09-05T03:59:53.584Z,73.80
2022-09-05T04:04:30.419Z,73.60
2022-09-05T04:08:14.025Z,73.90
2022-09-05T04:09:43.318Z,73.90
2022-09-05T04:12:23.224Z,73.90
2022-09-05T04:15:27.055Z,73.80
2022-09-05T04:18:33.055Z,73.60
2022-09-05T04:21:18.312Z,73.60
2022-09-05T04:24:10.346Z,73.50
2022-09-05T04:27:39.111Z,73.50
2022-09-05T04:30:40.519Z,73.50
2022-09-05T04:33:22.261Z,73.50
2022-09-05T04:36:36.739Z,73.50
2022-09-05T04:39:17.627Z,73.80
2022-09-05T04:42:21.919Z,74.30
2022-09-05T04:45:08.342Z,75.10
2022-09-05T04:47:52.334Z,75.00
2022-09-05T04:50:37.209Z,75.10
2022-09-05T04:53:54.566Z,75.10
2022-09-05T04:56:38.494Z,75.30
2022-09-05T05:00:54.250Z,75.20
2022-09-05T05:06:15.484Z,75.20
2022-09-05T05:06:30.035Z,75.40
2022-09-05T05:09:23.007Z,75.70
2022-09-05T05:17:59.441Z,76.30
2022-09-05T05:17:59.704Z,75.70
2022-09-05T05:18:38.700Z,77.50
2022-09-05T05:21:23.590Z,77.60
2022-09-05T05:24:17.228Z,77.80
2022-09-05T05:27:19.901Z,77.80
2022-09-05T05:30:04.553Z,77.70
2022-09-05T05:32:52.413Z,77.80
2022-09-05T05:35:33.390Z,77.60
2022-09-05T05:38:17.879Z,77.40
2022-09-05T05:41:13.051Z,77.00
2022-09-05T05:43:49.901Z,77.10
2022-09-05T05:46:38.187Z,76.70
2022-09-05T05:49:51.068Z,76.30
2022-09-05T05:53:01.442Z,76.00
2022-09-05T05:56:25.092Z,75.50
2022-09-05T05:59:07.762Z,75.40
2022-09-05T06:02:27.853Z,75.10
2022-09-05T06:05:27.782Z,74.80
2022-09-05T06:12:24.687Z,74.20
2022-09-05T06:15:01.764Z,74.20
2022-09-05T06:15:28.099Z,74.30
2022-09-05T06:18:51.536Z,73.60
2022-09-05T06:22:08.806Z,73.10
2022-09-05T06:25:28.901Z,72.60
2022-09-05T06:28:20.328Z,72.00
2022-09-05T06:31:30.514Z,71.50
2022-09-05T06:34:32.563Z,70.80
2022-09-05T06:37:20.078Z,70.30
2022-09-05T06:40:33.472Z,69.70
2022-09-05T06:43:31.383Z,69.00
2022-09-05T06:46:55.349Z,68.10
2022-09-05T06:49:30.341Z,66.90
2022-09-05T06:53:19.722Z,65.40
2022-09-05T06:56:03.926Z,63.40
2022-09-05T06:58:58.385Z,61.30
2022-09-05T07:02:08.641Z,60.30
2022-09-05T07:05:38.990Z,58.90
2022-09-05T07:08:52.022Z,57.60
2022-09-05T07:11:42.190Z,56.40
2022-09-05T07:14:29.041Z,54.60
2022-09-05T07:18:08.930Z,53.60
2022-09-05T07:21:16.375Z,52.60
2022-09-05T07:24:10.136Z,51.10
2022-09-05T07:26:53.973Z,50.40
2022-09-05T07:29:36.227Z,49.50
2022-09-05T07:32:20.189Z,49.00
2022-09-05T07:35:01.714Z,48.60
2022-09-05T07:37:44.583Z,48.30
2022-09-05T07:40:26.393Z,48.20
2022-09-05T07:43:18.851Z,47.50
2022-09-05T07:46:11.873Z,47.30
2022-09-05T07:48:57.426Z,46.80
2022-09-05T07:56:46.154Z,46.90
2022-09-05T07:56:59.014Z,46.90
2022-09-05T07:57:51.743Z,46.90
2022-09-05T08:00:30.248Z,46.40
2022-09-05T08:03:12.851Z,46.00
2022-09-05T08:05:54.089Z,45.90
2022-09-05T08:10:05.426Z,45.80
2022-09-05T08:13:23.884Z,45.70
2022-09-05T08:16:02.903Z,45.30
2022-09-05T08:18:54.324Z,44.90
2022-09-05T08:21:51.690Z,44.50
2022-09-05T08:25:05.666Z,44.50
2022-09-05T08:28:20.802Z,44.50
2022-09-05T08:31:06.799Z,44.30
2022-09-05T08:33:43.587Z,44.00
2022-09-05T08:36:36.363Z,43.80
2022-09-05T08:39:15.608Z,43.70
2022-09-05T08:42:49.496Z,43.20
2022-09-05T08:46:41.809Z,43.20
2022-09-05T08:49:36.896Z,42.80
2022-09-05T08:52:51.506Z,42.50
2022-09-05T08:55:54.911Z,42.30
2022-09-05T08:58:54.093Z,42.20
2022-09-05T09:02:46.025Z,41.60
2022-09-05T09:06:11.827Z,41.50
2022-09-05T09:08:54.453Z,40.70
2022-09-05T09:11:54.153Z,40.80
2022-09-05T09:14:58.091Z,40.80
2022-09-05T09:17:45.417Z,39.80
2022-09-05T09:20:59.069Z,39.50
2022-09-05T09:23:46.935Z,39.80
2022-09-05T09:26:29.309Z,39.70
2022-09-05T09:29:10.531Z,39.60
2022-09-05T09:32:11.278Z,38.60
2022-09-05T09:35:12.633Z,38.80
2022-09-05T09:38:32.246Z,38.50
2022-09-05T09:41:55.394Z,38.50
2022-09-05T09:45:32.003Z,38.30
2022-09-05T09:48:09.976Z,38.10
2022-09-05T09:51:03.954Z,37.90
2022-09-05T09:54:03.756Z,37.70
2022-09-05T09:57:12.404Z,37.10
2022-09-05T10:00:21.186Z,37.20
2022-09-05T10:10:35.548Z,37.30
2022-09-05T10:10:52.403Z,37.30
2022-09-05T10:10:59.081Z,36.70
2022-09-05T10:14:22.599Z,36.30
2022-09-05T10:17:34.597Z,36.10
2022-09-05T10:20:29.595Z,35.80
2022-09-05T10:23:54.007Z,34.80
2022-09-05T10:26:50.518Z,34.40
2022-09-05T10:30:06.879Z,34.50
2022-09-05T10:35:05.002Z,34.20
2022-09-05T10:36:00.806Z,34.00
2022-09-05T10:38:45.394Z,34.00
2022-09-05T10:41:39.498Z,33.30
2022-09-05T10:44:15.992Z,33.30
2022-09-05T10:47:11.279Z,32.90
2022-09-05T10:49:50.896Z,33.10
2022-09-05T10:52:52.760Z,33.00
2022-09-05T10:55:56.065Z,33.20
2022-09-05T11:02:24.628Z,31.80
2022-09-05T11:02:27.009Z,31.80
2022-09-05T11:05:16.130Z,30.90
2022-09-05T11:08:21.739Z,30.90
2022-09-05T11:11:32.539Z,30.10
2022-09-05T11:14:31.873Z,29.90
2022-09-05T11:17:31.928Z,28.90
2022-09-05T11:20:39.058Z,29.20
2022-09-05T11:23:40.043Z,29.30
2022-09-05T11:26:51.444Z,29.40
2022-09-05T11:30:30.144Z,29.40
2022-09-05T11:39:53.153Z,29.50
2022-09-05T11:39:56.070Z,29.50
2022-09-05T11:40:43.599Z,29.20
2022-09-05T11:43:34.982Z,29.50
2022-09-05T11:47:27.039Z,29.10
2022-09-05T11:50:39.003Z,29.30
2022-09-05T11:53:17.045Z,29.30
2022-09-05T11:56:19.210Z,28.90
2022-09-05T11:59:47.748Z,28.80
2022-09-05T12:03:58.145Z,28.30
2022-09-05T12:06:54.881Z,28.10
2022-09-05T12:09:46.306Z,27.40
2022-09-05T12:12:43.371Z,27.80
2022-09-05T12:15:33.971Z,28.60
2022-09-05T12:19:24.017Z,28.90
2022-09-05T12:22:23.956Z,29.20
2022-09-05T12:25:26.109Z,28.00
2022-09-05T12:28:46.661Z,26.90
2022-09-05T12:32:36.725Z,26.80
2022-09-05T12:36:07.465Z,27.50
2022-09-05T12:40:55.442Z,28.50
2022-09-05T12:41:43.000Z,26.90
2022-09-05T12:44:42.741Z,26.60
2022-09-05T12:47:19.293Z,26.60
2022-09-05T12:50:14.423Z,26.60
2022-09-05T12:53:06.865Z,26.60
2022-09-05T12:56:44.320Z,26.70
2022-09-05T13:03:04.928Z,26.40
2022-09-05T13:03:07.542Z,26.90
2022-09-05T13:05:12.462Z,26.50
2022-09-05T13:07:57.010Z,25.70
2022-09-05T13:14:47.604Z,25.70
2022-09-05T13:14:54.757Z,26.30
2022-09-05T13:16:54.084Z,26.00
2022-09-05T13:19:45.756Z,26.80
2022-09-05T13:22:24.328Z,25.80
2022-09-05T13:25:09.067Z,24.80
2022-09-05T13:27:56.855Z,25.00
2022-09-05T13:33:22.670Z,24.90
2022-09-05T13:38:15.622Z,24.80
2022-09-05T13:38:15.895Z,24.90
2022-09-05T13:40:17.502Z,27.10
2022-09-05T13:43:10.660Z,26.80
2022-09-05T13:46:07.944Z,25.40
2022-09-05T13:52:05.121Z,26.50
2022-09-05T13:54:51.079Z,27.10
2022-09-05T13:57:40.802Z,26.60
2022-09-05T14:00:34.984Z,25.90
2022-09-05T14:03:40.342Z,25.50
2022-09-05T14:10:22.290Z,25.20
2022-09-05T14:13:15.377Z,25.00
2022-09-05T14:16:05.586Z,25.90
2022-09-05T14:19:06.723Z,25.60
2022-09-05T14:21:44.071Z,26.00
2022-09-05T14:24:27.586Z,25.60
2022-09-05T14:27:17.092Z,24.40
2022-09-05T14:31:30.244Z,25.20
2022-09-05T14:37:49.519Z,24.30
2022-09-05T14:37:58.458Z,23.90
2022-09-05T14:40:29.225Z,25.20
2022-09-05T14:43:56.879Z,25.90
2022-09-05T14:47:02.650Z,25.70
2022-09-05T14:50:27.553Z,24.60
2022-09-05T14:57:23.271Z,25.10
2022-09-05T15:02:53.945Z,24.30
2022-09-05T15:03:01.006Z,24.90
2022-09-05T15:05:28.615Z,25.00
2022-09-05T15:10:57.888Z,24.70
2022-09-05T15:12:23.539Z,24.50
2022-09-05T15:14:29.217Z,23.50
2022-09-05T15:17:05.986Z,24.80
2022-09-05T15:20:04.995Z,25.00
2022-09-05T15:22:44.753Z,24.30
2022-09-05T15:25:26.902Z,24.00
2022-09-05T15:28:08.542Z,25.00
2022-09-05T15:31:00.425Z,25.20
2022-09-05T15:33:37.252Z,24.90
2022-09-05T15:36:14.222Z,24.20
2022-09-05T15:38:55.652Z,24.90
2022-09-05T15:41:32.065Z,24.30
2022-09-05T15:44:14.832Z,24.40
2022-09-05T15:47:03.749Z,23.80
2022-09-05T15:49:59.804Z,24.00
2022-09-05T15:52:45.627Z,25.00
2022-09-05T15:55:24.542Z,24.70
2022-09-05T15:58:06.071Z,25.10
2022-09-05T16:00:51.295Z,25.00
2022-09-05T16:06:10.725Z,24.60
2022-09-05T16:10:33.840Z,24.80
2022-09-05T16:10:42.749Z,25.00
2022-09-05T16:12:45.178Z,24.00
2022-09-05T16:16:46.118Z,25.40
2022-09-05T16:23:12.960Z,24.00
2022-09-05T16:23:35.081Z,24.60
2022-09-05T16:24:59.597Z,24.60
2022-09-05T16:28:07.210Z,24.90
2022-09-05T16:30:42.101Z,24.50
2022-09-05T16:33:26.264Z,24.70
2022-09-05T16:36:27.132Z,25.10
2022-09-05T16:39:16.118Z,25.20
2022-09-05T16:42:01.315Z,25.50
2022-09-05T16:44:49.618Z,25.40
2022-09-05T16:47:55.236Z,25.40
2022-09-05T16:50:49.257Z,26.10
2022-09-05T16:53:30.152Z,26.50
2022-09-05T16:56:23.581Z,26.40
2022-09-05T16:59:21.293Z,26.40
2022-09-05T17:02:28.153Z,26.50
2022-09-05T17:05:43.633Z,26.40
2022-09-05T17:08:27.958Z,26.30
2022-09-05T17:11:18.405Z,26.70
2022-09-05T17:14:16.953Z,26.70
2022-09-05T17:16:56.343Z,26.30
2022-09-05T17:19:37.491Z,26.20
2022-09-05T17:25:16.865Z,26.50
2022-09-05T17:29:31.265Z,26.50
2022-09-05T17:29:36.339Z,26.50
2022-09-05T17:31:59.681Z,26.50
2022-09-05T17:35:16.800Z,26.50
2022-09-05T17:38:24.266Z,27.10
2022-09-05T17:41:05.460Z,27.40
2022-09-05T17:43:41.397Z,27.90
2022-09-05T17:46:28.933Z,27.40
2022-09-05T17:49:19.372Z,27.80
2022-09-05T17:51:55.331Z,28.20
2022-09-05T17:54:33.545Z,27.90
2022-09-05T17:57:27.325Z,27.90
2022-09-05T18:00:50.235Z,28.10
2022-09-05T18:03:37.538Z,28.20
2022-09-05T18:06:15.379Z,28.20
2022-09-05T18:08:53.033Z,28.00
2022-09-05T18:11:27.983Z,28.20
2022-09-05T18:14:24.821Z,28.30
2022-09-05T18:17:36.730Z,28.40
2022-09-05T18:20:06.434Z,28.70
2022-09-05T18:23:38.876Z,28.80
2022-09-05T18:26:14.201Z,29.00
2022-09-05T18:29:00.827Z,29.20
2022-09-05T18:31:40.831Z,29.40
2022-09-05T18:34:19.809Z,29.50
2022-09-05T18:36:57.445Z,29.70
2022-09-05T18:39:38.519Z,29.80
2022-09-05T18:42:33.069Z,30.00
2022-09-05T18:45:17.108Z,30.00
2022-09-05T18:48:00.441Z,30.20
2022-09-05T18:50:42.315Z,30.30
2022-09-05T18:53:30.812Z,30.50
2022-09-05T18:56:12.582Z,30.60
2022-09-05T18:59:09.868Z,30.70
2022-09-05T19:02:41.115Z,30.80
2022-09-05T19:05:43.167Z,31.00
2022-09-05T19:08:47.091Z,31.10
2022-09-05T19:11:35.922Z,31.30
2022-09-05T19:14:29.142Z,31.40
2022-09-05T19:17:36.125Z,31.60
2022-09-05T19:20:32.420Z,31.80
2022-09-05T19:23:13.511Z,32.10
2022-09-05T19:25:57.421Z,32.20
2022-09-05T19:36:42.484Z,32.40
2022-09-05T19:36:53.753Z,32.60
2022-09-05T19:37:03.125Z,32.50
2022-09-05T19:37:44.713Z,32.60
2022-09-05T19:47:13.630Z,33.30
2022-09-05T19:47:36.175Z,33.10
2022-09-05T19:47:36.819Z,33.30
2022-09-05T19:49:28.078Z,33.50
2022-09-05T19:52:16.359Z,33.70
2022-09-05T19:54:51.727Z,33.60
2022-09-05T19:57:28.378Z,33.70
2022-09-05T20:00:05.113Z,33.90
2022-09-05T20:02:51.950Z,34.00
2022-09-05T20:05:27.314Z,33.90
2022-09-05T20:08:06.335Z,34.10
2022-09-05T20:10:41.606Z,34.30
2022-09-05T20:13:24.763Z,34.80
2022-09-05T20:16:03.510Z,34.60
2022-09-05T20:18:44.202Z,34.90
2022-09-05T20:21:29.578Z,35.10
2022-09-05T20:24:04.599Z,35.10
2022-09-05T20:26:39.680Z,35.20
2022-09-05T20:30:00.903Z,35.20
2022-09-05T20:32:44.300Z,35.40
2022-09-05T20:39:38.223Z,35.50
2022-09-05T20:43:17.035Z,35.80
2022-09-05T20:43:26.648Z,35.60
2022-09-05T20:44:50.322Z,36.00
2022-09-05T20:54:12.984Z,36.30
2022-09-05T20:54:13.919Z,36.20
2022-09-05T20:54:32.249Z,36.60
2022-09-05T20:56:48.246Z,36.70
2022-09-05T20:59:37.928Z,36.90
2022-09-05T21:02:28.654Z,37.10
2022-09-05T21:05:20.698Z,37.30
2022-09-05T21:08:34.761Z,37.50
2022-09-05T21:11:09.800Z,37.50
2022-09-05T21:13:53.209Z,37.60
2022-09-05T21:16:32.420Z,37.70
2022-09-05T21:19:30.155Z,37.90
2022-09-05T21:22:10.162Z,37.90
2022-09-05T21:24:46.566Z,38.10
2022-09-05T21:27:24.904Z,38.30
2022-09-05T21:30:29.419Z,38.40
2022-09-05T21:33:45.892Z,38.60
2022-09-05T21:36:22.569Z,38.80
2022-09-05T21:38:57.574Z,39.00
2022-09-05T21:41:32.493Z,39.10
2022-09-05T21:47:33.819Z,39.10
2022-09-05T21:47:43.209Z,39.20
2022-09-05T21:49:59.100Z,39.30
2022-09-05T21:52:40.295Z,39.40
2022-09-05T21:59:16.404Z,40.00
2022-09-05T21:59:19.389Z,39.90
2022-09-05T22:01:50.741Z,40.10
2022-09-05T22:04:25.379Z,40.30
2022-09-05T22:07:02.735Z,40.40
2022-09-05T22:09:37.640Z,40.40
2022-09-05T22:12:29.848Z,40.60
2022-09-05T22:15:27.778Z,41.20
2022-09-05T22:18:17.510Z,41.00
2022-09-05T22:21:31.834Z,41.40
2022-09-05T22:23:53.987Z,41.40
2022-09-05T22:26:37.792Z,41.70
2022-09-05T22:29:18.281Z,41.70
2022-09-05T22:31:54.706Z,41.80
2022-09-05T22:34:29.631Z,42.00
2022-09-05T22:37:04.623Z,42.10
2022-09-05T22:39:39.707Z,42.10
2022-09-05T22:42:15.169Z,42.20
2022-09-05T22:44:50.190Z,42.40
2022-09-05T22:47:29.626Z,42.30
2022-09-05T22:50:05.124Z,42.30
2022-09-05T22:52:41.103Z,42.50
2022-09-05T22:55:16.391Z,42.50
2022-09-05T22:57:51.348Z,42.50
2022-09-05T23:00:26.286Z,42.70
2022-09-05T23:03:04.040Z,42.90
2022-09-05T23:05:38.929Z,42.80
2022-09-05T23:08:14.499Z,43.10
2022-09-05T23:10:49.416Z,43.30
2022-09-05T23:13:24.970Z,44.10
2022-09-05T23:16:00.138Z,43.80
2022-09-05T23:18:35.430Z,43.90
2022-09-05T23:21:12.722Z,44.00
2022-09-05T23:23:47.721Z,44.10
2022-09-05T23:26:22.610Z,44.20
2022-09-05T23:28:57.470Z,44.40
2022-09-05T23:31:32.445Z,44.60
2022-09-05T23:34:07.385Z,44.90
2022-09-05T23:36:42.365Z,45.10
2022-09-05T23:39:17.234Z,45.20
2022-09-05T23:41:52.467Z,45.30
2022-09-05T23:44:27.323Z,45.70
2022-09-05T23:47:02.188Z,46.00
2022-09-05T23:49:37.072Z,45.80
2022-09-05T23:52:11.912Z,46.00
2022-09-05T23:54:46.764Z,46.10
2022-09-05T23:57:23.373Z,46.20
2022-09-05T23:59:58.206Z,46.40
